createdAt,value
2019-05-14T00:03:31.111Z,3.28
2019-05-14T00:06:02.223Z,3.30
2019-05-14T00:08:32.867Z,3.27
2019-05-14T00:11:02.273Z,3.25
2019-05-14T00:13:32.256Z,3.21
2019-05-14T00:18:46.420Z,3.16
2019-05-14T00:21:55.192Z,3.14
2019-05-14T00:25:05.084Z,3.16
2019-05-14T00:27:34.543Z,3.14
2019-05-14T00:33:01.256Z,3.13
2019-05-14T00:35:32.547Z,3.09
2019-05-14T00:38:13.628Z,3.08
2019-05-14T00:44:03.286Z,3.07
2019-05-14T00:46:33.325Z,3.03
2019-05-14T00:51:53.108Z,3.02
2019-05-14T00:57:12.602Z,2.97
2019-05-14T00:59:42.054Z,2.95
2019-05-14T01:02:51.829Z,2.93
2019-05-14T01:05:25.165Z,2.91
2019-05-14T01:07:54.869Z,2.87
2019-05-14T01:10:24.371Z,2.85
2019-05-14T01:15:51.915Z,2.81
2019-05-14T01:18:21.903Z,2.79
2019-05-14T01:20:52.922Z,2.74
2019-05-14T01:26:36.620Z,2.76
2019-05-14T01:29:45.319Z,2.74
2019-05-14T01:32:14.779Z,2.72
2019-05-14T01:38:02.430Z,2.70
2019-05-14T01:40:32.063Z,2.66
2019-05-14T01:43:02.646Z,2.67
2019-05-14T01:45:32.995Z,2.68
2019-05-14T01:48:02.566Z,2.69
2019-05-14T01:50:32.336Z,2.71
2019-05-14T01:53:03.163Z,2.73
2019-05-14T01:55:32.741Z,2.73
2019-05-14T01:58:02.553Z,2.71
2019-05-14T02:03:09.219Z,2.70
2019-05-14T02:11:34.632Z,2.70
2019-05-14T02:14:43.352Z,2.74
2019-05-14T02:19:51.467Z,2.73
2019-05-14T02:25:51.662Z,2.76
2019-05-14T02:28:22.127Z,2.75
2019-05-14T02:30:57.938Z,2.76
2019-05-14T02:33:23.667Z,2.76
2019-05-14T02:35:53.078Z,2.76
2019-05-14T02:41:19.660Z,2.79
2019-05-14T02:43:50.504Z,2.80
2019-05-14T02:46:59.703Z,2.80
2019-05-14T02:52:43.634Z,2.83
2019-05-14T02:55:13.078Z,2.86
2019-05-14T02:57:42.544Z,2.88
2019-05-14T03:00:51.540Z,2.87
2019-05-14T03:03:33.084Z,2.91
2019-05-14T03:06:02.894Z,2.98
2019-05-14T03:08:32.676Z,3.01
2019-05-14T03:11:41.607Z,3.01
2019-05-14T03:14:11.068Z,3.04
2019-05-14T03:16:40.863Z,3.07
2019-05-14T03:19:12.566Z,3.09
2019-05-14T03:21:42.090Z,3.18
2019-05-14T03:34:13.727Z,3.46
2019-05-14T03:36:42.988Z,3.53
2019-05-14T03:39:11.264Z,3.61
2019-05-14T03:44:39.784Z,3.76
2019-05-14T03:47:10.308Z,3.83
2019-05-14T03:49:40.363Z,3.90
2019-05-14T03:52:10.552Z,3.95
2019-05-14T03:55:20.340Z,4.01
2019-05-14T03:57:51.372Z,4.07
2019-05-14T04:01:01.020Z,4.15
2019-05-14T04:37:10.675Z,5.33
2019-05-14T04:39:40.087Z,5.57
2019-05-14T04:42:10.049Z,5.76
2019-05-14T04:44:42.926Z,5.92
2019-05-14T04:47:27.658Z,6.28
2019-05-14T04:49:43.954Z,8.93
2019-05-14T04:52:13.758Z,11.65
2019-05-14T04:57:34.264Z,12.83
2019-05-14T05:00:03.984Z,13.41
2019-05-14T05:02:33.401Z,13.97
2019-05-14T05:05:42.258Z,13.78
2019-05-14T05:11:22.391Z,10.89
2019-05-14T05:13:52.285Z,9.82
2019-05-14T05:16:22.101Z,9.14
2019-05-14T05:22:08.018Z,8.43
2019-05-14T05:24:38.315Z,8.10
2019-05-14T05:27:48.712Z,7.90
2019-05-14T05:33:33.480Z,7.93
2019-05-14T05:36:02.854Z,7.96
2019-05-14T05:38:32.664Z,7.91
2019-05-14T05:41:22.455Z,7.85
2019-05-14T05:43:52.247Z,7.77
2019-05-14T05:46:21.608Z,7.86
2019-05-14T05:48:51.278Z,7.92
2019-05-14T05:51:20.841Z,7.91
2019-05-14T05:54:09.674Z,8.00
2019-05-14T05:59:19.119Z,8.02
2019-05-14T06:07:53.889Z,8.15
2019-05-14T06:13:32.653Z,8.18
2019-05-14T06:16:02.098Z,8.20
2019-05-14T06:18:34.314Z,8.25
2019-05-14T06:21:03.287Z,8.37
2019-05-14T06:23:45.048Z,8.62
2019-05-14T06:26:53.933Z,8.91
2019-05-14T06:29:23.518Z,8.75
2019-05-14T06:31:52.901Z,8.80
2019-05-14T06:34:22.373Z,8.87
2019-05-14T06:40:01.169Z,8.95
2019-05-14T06:42:30.584Z,9.21
2019-05-14T06:45:00.082Z,9.34
2019-05-14T06:48:09.003Z,9.51
2019-05-14T06:53:53.767Z,9.77
2019-05-14T06:56:23.278Z,9.72
2019-05-14T06:58:52.786Z,9.79
2019-05-14T07:01:22.398Z,9.76
2019-05-14T07:03:51.934Z,9.83
2019-05-14T07:06:21.416Z,10.02
2019-05-14T07:09:30.974Z,10.25
2019-05-14T07:15:02.537Z,11.13
2019-05-14T07:17:32.003Z,11.41
2019-05-14T07:22:58.648Z,10.57
2019-05-14T07:25:28.833Z,10.11
2019-05-14T07:28:19.297Z,9.81
2019-05-14T07:33:51.474Z,9.77
2019-05-14T07:36:39.912Z,9.81
2019-05-14T07:39:09.659Z,10.10
2019-05-14T07:41:39.292Z,10.28
2019-05-14T07:44:09.366Z,10.34
2019-05-14T07:46:40.141Z,10.64
2019-05-14T07:49:11.895Z,10.49
2019-05-14T07:51:41.122Z,10.50
2019-05-14T07:54:11.464Z,10.71
2019-05-14T07:57:20.399Z,10.62
2019-05-14T07:59:50.791Z,10.64
2019-05-14T08:02:20.173Z,10.51
2019-05-14T08:04:49.574Z,10.74
2019-05-14T08:07:18.961Z,10.63
2019-05-14T08:09:48.418Z,10.61
2019-05-14T08:12:19.314Z,10.44
2019-05-14T08:15:09.543Z,10.39
2019-05-14T08:17:22.864Z,10.16
2019-05-14T08:19:52.307Z,10.05
2019-05-14T08:22:21.780Z,10.35
2019-05-14T08:25:02.405Z,10.45
2019-05-14T08:27:31.842Z,10.68
2019-05-14T08:30:01.271Z,10.91
2019-05-14T08:32:30.853Z,10.83
2019-05-14T08:35:00.447Z,10.75
2019-05-14T08:37:29.912Z,10.65
2019-05-14T08:39:59.582Z,10.94
2019-05-14T08:42:29.212Z,10.84
2019-05-14T08:53:45.175Z,10.87
2019-05-14T08:56:14.640Z,10.60
2019-05-14T08:58:43.986Z,10.39
2019-05-14T09:01:13.477Z,10.42
2019-05-14T09:03:43.405Z,10.38
2019-05-14T09:08:49.634Z,11.30
2019-05-14T09:17:22.194Z,11.52
2019-05-14T09:20:02.015Z,11.83
2019-05-14T09:28:28.471Z,11.48
2019-05-14T09:30:59.676Z,11.68
2019-05-14T09:33:29.905Z,11.26
2019-05-14T09:36:39.831Z,11.03
2019-05-14T09:39:12.253Z,11.22
2019-05-14T09:41:42.970Z,11.33
2019-05-14T09:44:51.759Z,11.99
2019-05-14T09:47:21.221Z,12.81
2019-05-14T09:52:59.540Z,12.78
2019-05-14T09:55:28.950Z,12.51
2019-05-14T09:57:58.733Z,12.88
2019-05-14T10:00:30.178Z,12.47
2019-05-14T10:03:39.368Z,12.08
2019-05-14T10:06:10.075Z,11.78
2019-05-14T10:08:39.524Z,11.52
2019-05-14T10:13:59.846Z,11.23
2019-05-14T10:16:30.000Z,11.21
2019-05-14T10:18:59.616Z,11.16
2019-05-14T10:21:29.456Z,11.05
2019-05-14T10:27:08.881Z,10.89
2019-05-14T10:29:39.639Z,10.87
2019-05-14T10:32:09.223Z,10.79
2019-05-14T10:34:38.745Z,10.62
2019-05-14T10:37:08.764Z,10.50
2019-05-14T10:39:39.626Z,10.61
2019-05-14T10:42:09.236Z,10.62
2019-05-14T10:44:40.248Z,10.76
2019-05-14T10:47:09.897Z,10.75
2019-05-14T10:49:39.280Z,10.72
2019-05-14T10:52:08.700Z,10.76
2019-05-14T10:54:38.918Z,10.91
2019-05-14T10:57:09.966Z,10.82
2019-05-14T10:59:39.685Z,11.21
2019-05-14T11:02:11.996Z,12.12
2019-05-14T11:04:40.960Z,12.82
2019-05-14T11:13:21.571Z,12.27
2019-05-14T11:15:51.082Z,12.49
2019-05-14T11:18:20.660Z,12.35
2019-05-14T11:23:45.673Z,11.63
2019-05-14T11:26:15.399Z,11.62
2019-05-14T11:28:44.898Z,11.54
2019-05-14T11:31:14.316Z,11.56
2019-05-14T11:33:44.318Z,11.35
2019-05-14T11:36:53.183Z,11.31
2019-05-14T11:42:38.856Z,11.05
2019-05-14T11:45:10.943Z,11.20
2019-05-14T11:47:41.542Z,11.15
2019-05-14T11:53:26.566Z,11.19
2019-05-14T11:55:55.919Z,11.30
2019-05-14T11:58:25.440Z,11.41
2019-05-14T12:00:54.873Z,11.78
2019-05-14T12:06:33.858Z,13.03
2019-05-14T12:09:04.406Z,13.79
2019-05-14T12:11:33.831Z,13.99
2019-05-14T12:14:03.335Z,13.78
2019-05-14T12:19:48.573Z,13.75
2019-05-14T12:22:19.273Z,13.35
2019-05-14T12:24:51.632Z,12.92
2019-05-14T12:27:21.039Z,12.80
2019-05-14T12:29:50.708Z,12.70
2019-05-14T12:35:19.662Z,12.57
2019-05-14T12:37:48.972Z,12.67
2019-05-14T12:40:19.354Z,12.79
2019-05-14T12:42:49.976Z,12.77
2019-05-14T12:48:30.647Z,12.49
2019-05-14T12:54:09.363Z,12.81
2019-05-14T12:56:40.112Z,13.07
2019-05-14T12:59:49.357Z,13.38
2019-05-14T13:02:19.611Z,13.25
2019-05-14T13:05:29.422Z,13.28
2019-05-14T13:11:01.130Z,12.60
2019-05-14T13:13:30.935Z,12.17
2019-05-14T13:16:00.434Z,11.81
2019-05-14T13:19:09.381Z,11.80
2019-05-14T13:22:08.657Z,11.51
2019-05-14T13:24:24.046Z,11.33
2019-05-14T13:26:53.422Z,11.59
2019-05-14T13:32:19.564Z,12.01
2019-05-14T13:34:52.176Z,12.13
2019-05-14T13:38:00.922Z,12.08
2019-05-14T13:43:31.724Z,11.97
2019-05-14T13:46:01.212Z,11.97
2019-05-14T13:49:10.175Z,11.93
2019-05-14T13:54:40.764Z,11.38
2019-05-14T13:57:12.184Z,11.04
2019-05-14T13:59:44.572Z,10.91
2019-05-14T14:02:52.899Z,10.78
2019-05-14T14:05:22.544Z,10.85
2019-05-14T14:11:12.669Z,10.75
2019-05-14T14:13:40.526Z,10.77
2019-05-14T14:16:49.323Z,10.90
2019-05-14T14:19:19.679Z,11.03
2019-05-14T14:21:49.629Z,10.98
2019-05-14T14:24:38.757Z,11.01
2019-05-14T14:27:09.552Z,11.03
2019-05-14T14:29:39.694Z,11.52
2019-05-14T14:32:13.584Z,12.62
2019-05-14T14:37:59.205Z,13.09
2019-05-14T14:40:30.143Z,13.17
2019-05-14T14:46:48.359Z,12.96
2019-05-14T14:52:19.880Z,12.60
2019-05-14T14:58:00.585Z,12.48
2019-05-14T15:01:09.419Z,12.24
2019-05-14T15:06:39.473Z,11.86
2019-05-14T15:12:10.205Z,11.26
2019-05-14T15:17:49.576Z,11.25
2019-05-14T15:20:19.680Z,11.38
2019-05-14T15:22:51.135Z,11.43
2019-05-14T15:28:18.875Z,11.48
2019-05-14T15:30:49.869Z,11.29
2019-05-14T15:33:19.949Z,11.13
2019-05-14T15:35:49.498Z,11.17
2019-05-14T15:38:59.086Z,11.17
2019-05-14T15:41:29.988Z,11.03
2019-05-14T15:44:48.660Z,10.90
2019-05-14T15:47:12.316Z,10.92
2019-05-14T15:49:41.930Z,11.05
2019-05-14T15:52:13.629Z,10.98
2019-05-14T15:54:47.133Z,10.97
2019-05-14T15:57:14.631Z,10.94
2019-05-14T15:59:44.160Z,10.97
2019-05-14T16:02:13.962Z,10.99
2019-05-14T16:05:04.491Z,10.79
2019-05-14T16:07:33.942Z,10.60
2019-05-14T16:10:04.802Z,10.63
2019-05-14T16:13:14.531Z,10.49
2019-05-14T16:18:24.262Z,10.03
2019-05-14T16:24:02.961Z,10.12
2019-05-14T16:29:47.239Z,10.20
2019-05-14T16:32:17.248Z,10.32
2019-05-14T16:38:14.629Z,10.57
2019-05-14T16:40:44.099Z,10.65
2019-05-14T16:49:11.995Z,10.62
2019-05-14T16:51:41.460Z,10.63
2019-05-14T16:54:12.372Z,10.59
2019-05-14T16:56:41.954Z,10.63
2019-05-14T16:59:50.827Z,10.58
2019-05-14T17:02:20.764Z,10.57
2019-05-14T17:04:50.193Z,10.57
2019-05-14T17:07:58.969Z,10.59
2019-05-14T17:10:48.269Z,10.60
2019-05-14T17:13:19.193Z,10.62
2019-05-14T17:19:02.688Z,10.41
2019-05-14T17:21:32.273Z,10.46
2019-05-14T17:24:01.876Z,10.53
2019-05-14T17:26:31.391Z,10.62
2019-05-14T17:29:20.154Z,10.67
2019-05-14T17:34:25.777Z,10.62
2019-05-14T17:36:55.457Z,10.58
2019-05-14T17:39:44.343Z,10.51
2019-05-14T17:42:14.453Z,10.48
2019-05-14T17:45:23.890Z,10.43
2019-05-14T17:47:58.326Z,10.40
2019-05-14T17:53:41.734Z,10.34
2019-05-14T17:56:50.709Z,10.30
2019-05-14T17:59:20.313Z,10.27
2019-05-14T18:01:49.682Z,10.20
2019-05-14T18:04:20.040Z,10.17
2019-05-14T18:06:49.587Z,10.14
2019-05-14T18:12:34.066Z,10.05
2019-05-14T18:18:33.348Z,9.98
2019-05-14T18:21:02.910Z,9.90
2019-05-14T18:24:11.670Z,9.85
2019-05-14T18:32:30.946Z,9.63
2019-05-14T18:35:20.270Z,9.60
2019-05-14T18:37:49.786Z,9.61
2019-05-14T18:40:19.818Z,9.57
2019-05-14T18:42:49.255Z,9.54
2019-05-14T18:45:19.362Z,9.50
2019-05-14T18:47:48.889Z,9.46
2019-05-14T18:50:19.582Z,9.41
2019-05-14T18:53:29.800Z,9.35
2019-05-14T18:59:00.718Z,9.25
2019-05-14T19:01:53.736Z,9.23
2019-05-14T19:04:22.179Z,9.21
2019-05-14T19:06:51.787Z,9.20
2019-05-14T19:18:20.154Z,9.32
2019-05-14T19:24:38.230Z,9.26
2019-05-14T19:30:25.377Z,9.08
2019-05-14T19:32:54.768Z,8.99
2019-05-14T19:35:43.600Z,8.89
2019-05-14T19:41:29.190Z,8.75
2019-05-14T19:44:40.377Z,8.64
2019-05-14T19:47:10.612Z,8.57
2019-05-14T19:49:59.184Z,8.50
2019-05-14T19:53:09.061Z,8.41
2019-05-14T20:02:06.282Z,8.10
2019-05-14T20:04:36.037Z,8.05
2019-05-14T20:10:01.457Z,7.90
2019-05-14T20:15:45.710Z,7.83
2019-05-14T20:18:54.640Z,7.75
2019-05-14T20:22:03.982Z,7.65
2019-05-14T20:30:50.491Z,7.56
2019-05-14T20:33:20.421Z,7.58
2019-05-14T20:35:50.621Z,7.61
2019-05-14T20:41:18.043Z,7.64
2019-05-14T20:43:48.116Z,7.69
2019-05-14T20:46:19.328Z,7.73
2019-05-14T20:49:28.421Z,7.76
2019-05-14T20:51:59.570Z,7.79
2019-05-14T20:54:30.903Z,7.80
2019-05-14T20:57:00.394Z,7.85
2019-05-14T20:59:29.936Z,7.84
2019-05-14T21:02:39.567Z,7.85
2019-05-14T21:08:13.611Z,7.83
2019-05-14T21:10:54.826Z,7.80
2019-05-14T21:16:18.527Z,7.77
2019-05-14T21:18:48.859Z,7.72
2019-05-14T21:24:29.604Z,7.68
2019-05-14T21:30:03.927Z,7.67
2019-05-14T21:33:13.049Z,7.63
2019-05-14T21:36:21.876Z,7.60
2019-05-14T21:38:51.797Z,7.59
2019-05-14T21:41:21.703Z,7.57
2019-05-14T21:44:30.507Z,7.54
2019-05-14T21:47:00.145Z,7.55
2019-05-14T21:49:30.005Z,7.57
2019-05-14T21:52:42.195Z,7.56
2019-05-14T21:58:25.158Z,7.59
2019-05-14T22:01:33.830Z,7.57
2019-05-14T22:04:03.359Z,7.57
2019-05-14T22:10:07.171Z,7.57
2019-05-14T22:12:39.269Z,7.60
2019-05-14T22:15:09.272Z,7.59
2019-05-14T22:17:39.591Z,7.60
2019-05-14T22:28:52.953Z,7.50
2019-05-14T22:35:31.647Z,7.50
2019-05-14T22:41:18.179Z,7.45
2019-05-14T22:43:51.093Z,7.45
2019-05-14T22:46:19.337Z,7.44
2019-05-14T22:48:51.488Z,7.41
2019-05-14T22:51:20.962Z,7.36
2019-05-14T22:54:30.712Z,7.34
2019-05-14T22:59:41.444Z,7.29
2019-05-14T23:02:11.539Z,7.26
2019-05-14T23:04:42.704Z,7.24
2019-05-14T23:07:12.282Z,7.24
2019-05-14T23:09:41.837Z,7.24
2019-05-14T23:12:12.280Z,7.27
2019-05-14T23:17:38.969Z,7.28
2019-05-14T23:20:09.373Z,7.32
2019-05-14T23:23:18.542Z,7.31
2019-05-14T23:25:49.836Z,7.34
2019-05-14T23:28:19.380Z,7.33
2019-05-14T23:31:30.811Z,7.33
2019-05-14T23:34:01.344Z,7.33
2019-05-14T23:45:40.517Z,7.23
2019-05-14T23:48:10.479Z,7.20
2019-05-14T23:50:39.861Z,7.17
2019-05-14T23:53:29.159Z,7.14
2019-05-14T23:56:19.383Z,7.03
2019-05-14T23:58:55.883Z,6.96
